createdAt,value
2023-04-10T00:01:16.206Z,98678.63
2023-04-10T00:03:44.159Z,98680.50
2023-04-10T00:06:11.826Z,98668.34
2023-04-10T00:08:39.359Z,98674.91
2023-04-10T00:11:06.927Z,98670.63
2023-04-10T00:13:34.453Z,98670.94
2023-04-10T00:16:03.387Z,98667.19
2023-04-10T00:18:30.940Z,98675.31
2023-04-10T00:20:58.460Z,98664.69
2023-04-10T00:23:26.338Z,98670.00
2023-04-10T00:25:53.888Z,98660.00
2023-04-10T00:28:21.392Z,98658.63
2023-04-10T00:30:48.915Z,98650.53
2023-04-10T00:33:17.903Z,98657.28
2023-04-10T00:35:45.571Z,98654.91
2023-04-10T00:38:13.660Z,98652.63
2023-04-10T00:40:41.648Z,98651.59
2023-04-10T00:43:09.299Z,98634.69
2023-04-10T00:45:36.825Z,98634.47
2023-04-10T00:48:04.608Z,98622.63
2023-04-10T00:50:33.486Z,98619.81
2023-04-10T00:53:01.116Z,98622.84
2023-04-10T00:55:29.004Z,98622.63
2023-04-10T00:57:56.569Z,98632.19
2023-04-10T01:00:24.077Z,98639.03
2023-04-10T01:02:52.035Z,98626.97
2023-04-10T01:05:19.746Z,98626.78
2023-04-10T01:07:52.387Z,98624.81
2023-04-10T01:10:21.534Z,98626.09
2023-04-10T01:12:52.830Z,98637.38
2023-04-10T01:15:21.088Z,98638.72
2023-04-10T01:17:50.868Z,98633.16
2023-04-10T01:20:20.645Z,98632.06
2023-04-10T01:22:53.712Z,98635.25
2023-04-10T01:25:28.733Z,98635.75
2023-04-10T01:28:00.243Z,98637.28
2023-04-10T01:30:29.142Z,98643.47
2023-04-10T01:32:57.084Z,98638.03
2023-04-10T01:35:24.775Z,98641.91
2023-04-10T01:37:52.315Z,98652.69
2023-04-10T01:40:20.477Z,98652.38
2023-04-10T01:42:49.806Z,98653.69
2023-04-10T01:45:21.394Z,98661.63
2023-04-10T01:47:52.957Z,98664.41
2023-04-10T01:50:21.033Z,98669.13
2023-04-10T01:52:49.437Z,98669.75
2023-04-10T01:55:20.912Z,98663.97
2023-04-10T01:57:56.549Z,98666.09
2023-04-10T02:00:25.748Z,98668.09
2023-04-10T02:02:55.023Z,98672.88
2023-04-10T02:05:23.181Z,98679.28
2023-04-10T02:07:53.769Z,98678.81
2023-04-10T02:10:23.478Z,98675.47
2023-04-10T02:12:54.072Z,98675.56
2023-04-10T02:15:24.671Z,98676.19
2023-04-10T02:17:53.909Z,98672.66
2023-04-10T02:20:22.385Z,98675.19
2023-04-10T02:22:50.103Z,98678.41
2023-04-10T02:25:17.813Z,98687.91
2023-04-10T02:27:45.951Z,98684.53
2023-04-10T02:30:13.660Z,98684.34
2023-04-10T02:32:42.931Z,98686.56
2023-04-10T02:35:12.054Z,98681.97
2023-04-10T02:37:39.837Z,98681.34
2023-04-10T02:40:10.068Z,98692.88
2023-04-10T02:42:47.526Z,98696.41
2023-04-10T02:45:15.391Z,98689.94
2023-04-10T02:47:44.989Z,98694.34
2023-04-10T02:50:14.164Z,98708.28
2023-04-10T02:52:45.536Z,98694.41
2023-04-10T02:55:13.360Z,98691.31
2023-04-10T02:57:42.618Z,98693.44
2023-04-10T03:00:11.713Z,98702.09
2023-04-10T03:03:00.961Z,98715.50
2023-04-10T03:05:36.479Z,98706.00
2023-04-10T03:08:04.585Z,98714.31
2023-04-10T03:10:32.348Z,98704.06
2023-04-10T03:13:00.329Z,98701.53
2023-04-10T03:15:28.144Z,98700.59
2023-04-10T03:17:56.656Z,98708.38
2023-04-10T03:20:24.560Z,98715.88
2023-04-10T03:22:53.662Z,98718.53
2023-04-10T03:25:21.836Z,98714.94
2023-04-10T03:27:49.618Z,98721.81
2023-04-10T03:30:18.306Z,98711.81
2023-04-10T03:32:46.398Z,98709.06
2023-04-10T03:35:14.128Z,98706.63
2023-04-10T03:37:42.292Z,98703.13
2023-04-10T03:40:12.007Z,98702.28
2023-04-10T03:42:39.872Z,98710.53
2023-04-10T03:45:09.260Z,98714.81
2023-04-10T03:47:37.041Z,98713.50
2023-04-10T03:50:08.294Z,98718.88
2023-04-10T03:52:42.779Z,98723.25
2023-04-10T03:55:19.065Z,98717.97
2023-04-10T03:57:47.380Z,98721.38
2023-04-10T04:00:16.742Z,98716.47
2023-04-10T04:02:51.009Z,98719.41
2023-04-10T04:05:39.290Z,98739.44
2023-04-10T04:08:23.633Z,98743.66
2023-04-10T04:11:18.723Z,98745.47
2023-04-10T04:14:02.025Z,98749.50
2023-04-10T04:16:48.351Z,98741.47
2023-04-10T04:19:51.224Z,98723.31
2023-04-10T04:22:19.004Z,98713.16
2023-04-10T04:25:08.908Z,98710.19
2023-04-10T04:28:11.957Z,98707.75
2023-04-10T04:30:58.081Z,98716.22
2023-04-10T04:33:44.724Z,98714.06
2023-04-10T04:36:32.767Z,98718.25
2023-04-10T04:39:12.482Z,98724.63
2023-04-10T04:42:05.139Z,98736.28
2023-04-10T04:44:51.941Z,98737.22
2023-04-10T04:47:28.474Z,98742.97
2023-04-10T04:50:09.059Z,98741.66
2023-04-10T04:52:55.271Z,98742.06
2023-04-10T04:55:42.183Z,98752.03
2023-04-10T04:58:30.337Z,98751.06
2023-04-10T05:01:38.041Z,98765.50
2023-04-10T05:04:20.675Z,98775.16
2023-04-10T05:07:11.870Z,98789.34
2023-04-10T05:09:56.185Z,98796.94
2023-04-10T05:13:02.025Z,98791.56
2023-04-10T05:15:39.417Z,98795.94
2023-04-10T05:18:31.486Z,98799.06
2023-04-10T05:21:07.459Z,98801.94
2023-04-10T05:23:37.986Z,98804.28
2023-04-10T05:26:38.277Z,98800.19
2023-04-10T05:29:27.465Z,98806.59
2023-04-10T05:32:21.079Z,98799.97
2023-04-10T05:35:03.114Z,98806.56
2023-04-10T05:37:39.555Z,98814.72
2023-04-10T05:40:27.359Z,98812.28
2023-04-10T05:43:10.666Z,98810.78
2023-04-10T05:45:57.024Z,98815.22
2023-04-10T05:48:47.776Z,98814.81
2023-04-10T05:51:22.696Z,98822.78
2023-04-10T05:54:05.839Z,98833.22
2023-04-10T05:56:49.570Z,98817.34
2023-04-10T05:59:40.311Z,98826.66
2023-04-10T06:02:28.685Z,98823.84
2023-04-10T06:04:56.972Z,98829.28
2023-04-10T06:07:27.400Z,98821.59
2023-04-10T06:09:55.129Z,98823.38
2023-04-10T06:12:22.921Z,98829.66
2023-04-10T06:14:50.926Z,98835.31
2023-04-10T06:17:21.743Z,98826.53
2023-04-10T06:19:49.753Z,98822.16
2023-04-10T06:22:27.715Z,98812.78
2023-04-10T06:24:57.267Z,98818.63
2023-04-10T06:27:25.019Z,98816.81
2023-04-10T06:29:52.913Z,98822.31
2023-04-10T06:32:24.492Z,98827.91
2023-04-10T06:34:52.962Z,98809.91
2023-04-10T06:37:21.028Z,98810.59
2023-04-10T06:39:48.812Z,98807.53
2023-04-10T06:42:17.906Z,98799.78
2023-04-10T06:45:00.383Z,98792.84
2023-04-10T06:47:28.111Z,98788.50
2023-04-10T06:49:55.880Z,98790.09
2023-04-10T06:52:23.610Z,98773.91
2023-04-10T06:54:51.332Z,98765.53
2023-04-10T06:57:20.426Z,98766.25
2023-04-10T06:59:48.162Z,98756.44
2023-04-10T07:02:15.937Z,98749.59
2023-04-10T07:04:43.733Z,98748.59
2023-04-10T07:07:13.352Z,98732.22
2023-04-10T07:09:41.209Z,98712.09
2023-04-10T07:12:08.940Z,98698.16
2023-04-10T07:14:38.060Z,98686.88
2023-04-10T07:17:05.792Z,98664.72
2023-04-10T07:19:33.545Z,98641.25
2023-04-10T07:22:01.411Z,98616.56
2023-04-10T07:24:29.159Z,98588.38
2023-04-10T07:26:58.141Z,98568.19
2023-04-10T07:29:25.873Z,98561.63
2023-04-10T07:31:55.155Z,98547.31
2023-04-10T07:34:22.916Z,98530.19
2023-04-10T07:36:50.641Z,98518.31
2023-04-10T07:39:18.551Z,98497.84
2023-04-10T07:41:46.291Z,98471.44
2023-04-10T07:44:14.653Z,98469.66
2023-04-10T07:46:42.514Z,98463.31
2023-04-10T07:49:12.149Z,98461.69
2023-04-10T07:51:39.868Z,98452.50
2023-04-10T07:54:07.601Z,98452.44
2023-04-10T07:56:35.363Z,98445.81
2023-04-10T07:59:03.650Z,98437.63
2023-04-10T08:01:31.335Z,98426.59
2023-04-10T08:03:59.288Z,98418.81
2023-04-10T08:06:28.563Z,98387.94
2023-04-10T08:08:56.505Z,98357.16
2023-04-10T08:11:25.219Z,98332.88
2023-04-10T08:13:52.950Z,98315.41
2023-04-10T08:16:21.779Z,98301.94
2023-04-10T08:18:49.411Z,98291.53
2023-04-10T08:21:16.909Z,98299.47
2023-04-10T08:23:46.790Z,98285.28
2023-04-10T08:26:14.370Z,98280.25
2023-04-10T08:28:46.809Z,98276.41
2023-04-10T08:31:14.517Z,98267.06
2023-04-10T08:33:42.683Z,98256.25
2023-04-10T08:36:10.306Z,98247.34
2023-04-10T08:38:37.950Z,98239.09
2023-04-10T08:41:07.235Z,98240.53
2023-04-10T08:43:35.533Z,98229.53
2023-04-10T08:46:03.103Z,98235.69
2023-04-10T08:48:32.386Z,98217.91
2023-04-10T08:51:00.828Z,98224.78
2023-04-10T08:53:28.409Z,98210.78
2023-04-10T08:55:55.949Z,98200.78
2023-04-10T08:58:24.886Z,98196.09
2023-04-10T09:00:52.413Z,98196.66
2023-04-10T09:03:20.403Z,98192.31
2023-04-10T09:05:48.006Z,98181.59
2023-04-10T09:08:15.853Z,98188.22
2023-04-10T09:10:43.394Z,98178.63
2023-04-10T09:13:11.186Z,98179.56
2023-04-10T09:18:45.190Z,98165.53
2023-04-10T09:21:13.186Z,98163.00
2023-04-10T09:23:40.786Z,98158.28
2023-04-10T09:26:23.271Z,98162.38
2023-04-10T09:28:57.072Z,98155.88
2023-04-10T09:31:34.292Z,98153.97
2023-04-10T09:34:10.208Z,98145.47
2023-04-10T09:36:38.063Z,98146.69
2023-04-10T09:39:05.904Z,98145.03
2023-04-10T09:41:33.459Z,98137.00
2023-04-10T09:44:07.837Z,98137.72
2023-04-10T09:46:35.541Z,98124.84
2023-04-10T09:49:05.322Z,98123.25
2023-04-10T09:51:35.574Z,98114.28
2023-04-10T09:54:03.478Z,98105.59
2023-04-10T09:56:31.233Z,98104.19
2023-04-10T09:58:59.330Z,98104.41
2023-04-10T10:01:27.275Z,98103.16
2023-04-10T10:03:55.313Z,98106.72
2023-04-10T10:06:23.308Z,98101.66
2023-04-10T10:08:52.300Z,98096.63
2023-04-10T10:11:20.120Z,98094.66
2023-04-10T10:13:48.982Z,98081.69
2023-04-10T10:16:17.857Z,98079.66
2023-04-10T10:18:46.082Z,98064.59
2023-04-10T10:21:14.236Z,98068.34
2023-04-10T10:23:41.802Z,98065.72
2023-04-10T10:26:10.959Z,98055.53
2023-04-10T10:28:39.354Z,98053.72
2023-04-10T10:31:07.151Z,98060.47
2023-04-10T10:33:36.439Z,98051.31
2023-04-10T10:36:04.611Z,98050.00
2023-04-10T10:38:32.205Z,98045.59
2023-04-10T10:41:01.818Z,98043.28
2023-04-10T10:43:34.426Z,98045.72
2023-04-10T10:46:03.165Z,98031.03
2023-04-10T10:48:30.851Z,98025.91
2023-04-10T10:50:59.208Z,98029.81
2023-04-10T10:53:32.282Z,98027.03
2023-04-10T10:55:59.830Z,98020.53
2023-04-10T10:58:42.278Z,98013.22
2023-04-10T11:01:11.252Z,98016.56
2023-04-10T11:03:39.167Z,98010.63
2023-04-10T11:06:08.142Z,98011.50
2023-04-10T11:08:42.580Z,98004.00
2023-04-10T11:11:10.867Z,98000.38
2023-04-10T11:13:38.646Z,97995.94
2023-04-10T11:16:06.958Z,97998.19
2023-04-10T11:19:14.851Z,97979.91
2023-04-10T11:22:04.104Z,97983.34
2023-04-10T11:24:47.123Z,97977.53
2023-04-10T11:27:29.614Z,97974.44
2023-04-10T11:29:58.290Z,97969.84
2023-04-10T11:32:26.258Z,97970.25
2023-04-10T11:34:53.815Z,97959.28
2023-04-10T11:37:25.710Z,97959.69
2023-04-10T11:40:03.867Z,97957.84
2023-04-10T11:42:31.464Z,97951.03
2023-04-10T11:44:59.900Z,97948.25
2023-04-10T11:47:27.602Z,97951.53
2023-04-10T11:49:58.861Z,97942.28
2023-04-10T11:52:27.833Z,97948.44
2023-04-10T11:54:55.694Z,97944.66
2023-04-10T11:57:23.579Z,97941.50
2023-04-10T11:59:51.318Z,97946.00
2023-04-10T12:02:19.032Z,97941.69
2023-04-10T12:04:46.940Z,97939.25
2023-04-10T12:07:14.533Z,97941.06
2023-04-10T12:09:48.388Z,97933.94
2023-04-10T12:12:15.980Z,97938.84
2023-04-10T12:14:43.624Z,97933.72
2023-04-10T12:17:11.638Z,97933.94
2023-04-10T12:19:39.451Z,97927.63
2023-04-10T12:22:07.748Z,97927.03
2023-04-10T12:24:43.447Z,97929.50
2023-04-10T12:27:16.548Z,97920.06
2023-04-10T12:29:44.179Z,97914.16
2023-04-10T12:32:12.096Z,97924.16
2023-04-10T12:34:39.699Z,97914.56
2023-04-10T12:37:07.510Z,97916.41
2023-04-10T12:39:35.524Z,97911.19
2023-04-10T12:46:11.134Z,97897.78
2023-04-10T12:48:38.900Z,97893.41
2023-04-10T12:51:06.664Z,97893.25
2023-04-10T12:53:43.455Z,97889.75
2023-04-10T12:56:12.283Z,97884.22
2023-04-10T12:58:39.775Z,97881.00
2023-04-10T13:01:07.907Z,97887.75
2023-04-10T13:03:37.148Z,97874.84
2023-04-10T13:06:06.234Z,97874.84
2023-04-10T13:08:33.777Z,97882.22
2023-04-10T13:11:03.299Z,97868.72
2023-04-10T13:13:31.490Z,97856.88
2023-04-10T13:15:59.159Z,97852.78
2023-04-10T13:18:26.913Z,97851.09
2023-04-10T13:20:55.842Z,97847.25
2023-04-10T13:23:23.391Z,97843.16
2023-04-10T13:25:51.149Z,97840.50
2023-04-10T13:28:18.980Z,97814.34
2023-04-10T13:30:46.545Z,97819.19
2023-04-10T13:33:14.121Z,97806.63
2023-04-10T13:39:36.659Z,97805.72
2023-04-10T13:42:04.132Z,97800.44
2023-04-10T13:44:32.334Z,97788.06
2023-04-10T13:46:59.891Z,97792.03
2023-04-10T13:49:30.268Z,97780.75
2023-04-10T13:51:57.742Z,97774.59
2023-04-10T13:54:25.262Z,97775.72
2023-04-10T13:56:54.944Z,97779.09
2023-04-10T13:59:22.576Z,97761.50
2023-04-10T14:06:17.511Z,97747.25
2023-04-10T14:08:45.038Z,97743.56
2023-04-10T14:11:12.450Z,97740.91
2023-04-10T14:13:41.280Z,97743.81
2023-04-10T14:16:09.251Z,97741.16
2023-04-10T14:18:37.246Z,97737.09
2023-04-10T14:21:05.054Z,97726.84
2023-04-10T14:23:32.628Z,97731.72
2023-04-10T14:26:00.513Z,97730.84
2023-04-10T14:28:29.230Z,97740.75
2023-04-10T14:30:58.101Z,97727.66
2023-04-10T14:33:26.284Z,97722.72
2023-04-10T14:35:53.996Z,97712.09
2023-04-10T14:38:21.770Z,97714.91
2023-04-10T14:40:50.373Z,97714.16
2023-04-10T14:43:19.470Z,97707.19
2023-04-10T14:45:47.052Z,97709.84
2023-04-10T14:48:16.176Z,97704.31
2023-04-10T14:50:43.857Z,97702.00
2023-04-10T14:53:11.456Z,97703.06
2023-04-10T14:55:39.002Z,97693.19
2023-04-10T14:58:08.948Z,97694.50
2023-04-10T15:00:36.525Z,97694.78
2023-04-10T15:03:05.965Z,97687.81
2023-04-10T15:05:34.967Z,97680.66
2023-04-10T15:08:02.531Z,97687.66
2023-04-10T15:10:30.112Z,97679.94
2023-04-10T15:12:57.684Z,97681.31
2023-04-10T15:15:25.247Z,97677.03
2023-04-10T15:17:52.787Z,97668.47
2023-04-10T15:20:20.346Z,97675.44
2023-04-10T15:22:49.187Z,97659.91
2023-04-10T15:25:16.843Z,97655.00
2023-04-10T15:27:44.448Z,97654.22
2023-04-10T15:30:12.576Z,97656.22
2023-04-10T15:32:40.263Z,97651.31
2023-04-10T15:35:10.759Z,97651.69
2023-04-10T15:37:38.275Z,97641.50
2023-04-10T15:40:08.014Z,97636.63
2023-04-10T15:42:35.776Z,97640.09
2023-04-10T15:45:03.242Z,97628.28
2023-04-10T15:47:30.847Z,97634.78
2023-04-10T15:49:58.415Z,97619.88
2023-04-10T15:52:26.138Z,97614.56
2023-04-10T15:54:53.754Z,97625.63
2023-04-10T15:57:22.696Z,97615.63
2023-04-10T15:59:52.287Z,97605.97
2023-04-10T16:02:19.956Z,97606.59
2023-04-10T16:04:47.552Z,97606.94
2023-04-10T16:07:15.206Z,97611.94
2023-04-10T16:09:42.720Z,97610.91
2023-04-10T16:12:10.354Z,97614.56
2023-04-10T16:14:39.242Z,97605.19
2023-04-10T16:17:06.771Z,97603.53
2023-04-10T16:19:34.330Z,97604.34
2023-04-10T16:22:02.122Z,97608.00
2023-04-10T16:24:29.691Z,97601.88
2023-04-10T16:26:57.257Z,97591.09
2023-04-10T16:29:24.856Z,97592.06
2023-04-10T16:31:53.823Z,97585.75
2023-04-10T16:34:21.455Z,97581.44
2023-04-10T16:36:49.039Z,97584.53
2023-04-10T16:39:16.597Z,97587.56
2023-04-10T16:41:44.736Z,97590.00
2023-04-10T16:44:12.316Z,97578.63
2023-04-10T16:46:39.963Z,97578.63
2023-04-10T16:49:11.561Z,97575.38
2023-04-10T16:51:39.349Z,97564.38
2023-04-10T16:54:07.155Z,97564.69
2023-04-10T16:56:34.903Z,97570.06
2023-04-10T16:59:02.473Z,97563.16
2023-04-10T17:01:30.939Z,97553.06
2023-04-10T17:03:58.901Z,97552.88
2023-04-10T17:06:27.907Z,97546.63
2023-04-10T17:08:55.831Z,97544.72
2023-04-10T17:11:23.548Z,97551.03
2023-04-10T17:13:51.132Z,97544.81
2023-04-10T17:16:18.907Z,97541.16
2023-04-10T17:18:46.556Z,97539.09
2023-04-10T17:21:14.160Z,97550.63
2023-04-10T17:23:43.175Z,97544.91
2023-04-10T17:26:13.326Z,97541.28
2023-04-10T17:28:40.960Z,97546.72
2023-04-10T17:31:08.598Z,97539.44
2023-04-10T17:33:36.192Z,97532.94
2023-04-10T17:36:03.843Z,97533.97
2023-04-10T17:38:38.610Z,97530.69
2023-04-10T17:41:08.045Z,97536.50
2023-04-10T17:43:35.780Z,97520.06
2023-04-10T17:46:03.507Z,97517.28
2023-04-10T17:48:31.307Z,97522.13
2023-04-10T17:51:01.200Z,97507.72
2023-04-10T17:53:28.788Z,97508.84
2023-04-10T17:55:56.433Z,97503.97
2023-04-10T17:58:25.480Z,97506.28
2023-04-10T18:00:53.047Z,97497.63
2023-04-10T18:03:21.402Z,97492.34
2023-04-10T18:05:49.261Z,97498.00
2023-04-10T18:08:16.965Z,97492.78
2023-04-10T18:10:44.660Z,97490.88
2023-04-10T18:13:12.417Z,97508.41
2023-04-10T18:15:41.393Z,97495.94
2023-04-10T18:18:09.036Z,97491.03
2023-04-10T18:20:37.711Z,97485.81
2023-04-10T18:23:06.439Z,97491.84
2023-04-10T18:25:34.274Z,97492.81
2023-04-10T18:28:13.014Z,97480.16
2023-04-10T18:30:43.262Z,97488.94
2023-04-10T18:33:11.454Z,97476.38
2023-04-10T18:35:39.343Z,97476.31
2023-04-10T18:38:07.211Z,97472.13
2023-04-10T18:40:36.856Z,97474.44
2023-04-10T18:43:04.790Z,97472.72
2023-04-10T18:45:36.190Z,97472.66
2023-04-10T18:48:05.317Z,97468.72
2023-04-10T18:50:34.962Z,97464.75
2023-04-10T18:53:02.734Z,97464.06
2023-04-10T18:55:30.618Z,97461.34
2023-04-10T18:57:58.177Z,97463.53
2023-04-10T19:00:25.867Z,97466.19
2023-04-10T19:02:54.131Z,97472.25
2023-04-10T19:05:23.243Z,97465.56
2023-04-10T19:08:02.995Z,97462.44
2023-04-10T19:10:32.858Z,97459.28
2023-04-10T19:13:00.458Z,97462.34
2023-04-10T19:15:28.351Z,97458.25
2023-04-10T19:17:55.944Z,97446.63
2023-04-10T19:20:50.915Z,97451.91
2023-04-10T19:23:12.958Z,97431.56
2023-04-10T19:25:40.997Z,97432.28
2023-04-10T19:28:08.588Z,97435.06
2023-04-10T19:30:36.361Z,97413.25
2023-04-10T19:33:06.188Z,97410.16
2023-04-10T19:35:35.455Z,97385.47
2023-04-10T19:38:03.394Z,97383.81
2023-04-10T19:40:32.314Z,97385.47
2023-04-10T19:43:02.056Z,97387.06
2023-04-10T19:45:30.104Z,97372.00
2023-04-10T19:47:57.790Z,97370.91
2023-04-10T19:50:25.443Z,97370.19
2023-04-10T19:52:55.547Z,97366.63
2023-04-10T19:55:23.242Z,97362.66
2023-04-10T19:57:50.883Z,97358.03
2023-04-10T20:00:18.770Z,97358.03
2023-04-10T20:02:46.781Z,97355.66
2023-04-10T20:05:14.785Z,97347.16
2023-04-10T20:07:42.421Z,97345.41
2023-04-10T20:10:12.022Z,97339.69
2023-04-10T20:12:39.595Z,97334.25
2023-04-10T20:15:08.449Z,97333.78
2023-04-10T20:17:36.199Z,97329.16
2023-04-10T20:20:04.102Z,97327.16
2023-04-10T20:22:31.816Z,97319.72
2023-04-10T20:24:59.392Z,97312.72
2023-04-10T20:27:28.333Z,97302.66
2023-04-10T20:29:55.905Z,97303.91
2023-04-10T20:32:23.438Z,97302.13
2023-04-10T20:34:51.045Z,97299.19
2023-04-10T20:37:21.981Z,97300.13
2023-04-10T20:39:49.680Z,97305.56
2023-04-10T20:42:17.695Z,97310.28
2023-04-10T20:44:46.646Z,97313.63
2023-04-10T20:47:14.226Z,97317.16
2023-04-10T20:49:41.873Z,97307.63
2023-04-10T20:52:09.423Z,97303.44
2023-04-10T20:54:36.937Z,97305.13
2023-04-10T20:57:05.939Z,97300.66
2023-04-10T20:59:33.530Z,97301.56
2023-04-10T21:02:02.496Z,97301.44
2023-04-10T21:04:30.106Z,97303.88
2023-04-10T21:06:57.602Z,97305.38
2023-04-10T21:09:25.247Z,97296.25
2023-04-10T21:11:52.733Z,97298.09
2023-04-10T21:14:20.285Z,97293.31
2023-04-10T21:16:48.419Z,97291.84
2023-04-10T21:19:18.626Z,97294.81
2023-04-10T21:21:46.241Z,97303.81
2023-04-10T21:24:13.941Z,97296.34
2023-04-10T21:26:41.640Z,97301.19
2023-04-10T21:29:09.372Z,97298.03
2023-04-10T21:31:37.131Z,97289.41
2023-04-10T21:34:04.846Z,97284.97
2023-04-10T21:36:35.033Z,97288.97
2023-04-10T21:39:02.769Z,97287.84
2023-04-10T21:41:30.455Z,97280.66
2023-04-10T21:44:00.351Z,97273.94
2023-04-10T21:46:28.079Z,97274.44
2023-04-10T21:48:56.000Z,97261.13
2023-04-10T21:51:25.662Z,97252.47
2023-04-10T21:53:55.769Z,97263.19
2023-04-10T21:56:23.390Z,97259.53
2023-04-10T21:58:52.965Z,97255.88
2023-04-10T22:01:20.917Z,97248.03
2023-04-10T22:03:48.683Z,97250.84
2023-04-10T22:06:16.380Z,97241.63
2023-04-10T22:08:44.713Z,97235.78
2023-04-10T22:11:13.868Z,97233.84
2023-04-10T22:13:41.524Z,97229.25
2023-04-10T22:16:09.325Z,97222.16
2023-04-10T22:18:36.955Z,97240.78
2023-04-10T22:21:04.625Z,97235.69
2023-04-10T22:23:32.420Z,97240.25
2023-04-10T22:26:00.559Z,97241.13
2023-04-10T22:28:29.992Z,97237.50
2023-04-10T22:30:57.616Z,97216.97
2023-04-10T22:33:25.343Z,97219.91
2023-04-10T22:35:53.225Z,97205.75
2023-04-10T22:38:20.926Z,97207.97
2023-04-10T22:40:48.610Z,97204.38
2023-04-10T22:43:16.256Z,97192.66
2023-04-10T22:45:45.302Z,97189.22
2023-04-10T22:48:13.050Z,97176.81
2023-04-10T22:50:41.268Z,97168.34
2023-04-10T22:53:10.001Z,97157.56
2023-04-10T22:55:38.146Z,97160.84
2023-04-10T22:58:05.880Z,97156.50
2023-04-10T23:00:33.704Z,97154.03
2023-04-10T23:03:02.950Z,97155.28
2023-04-10T23:05:32.975Z,97148.84
2023-04-10T23:08:00.730Z,97153.41
2023-04-10T23:10:28.444Z,97162.41
2023-04-10T23:12:56.104Z,97147.69
2023-04-10T23:15:23.683Z,97139.34
2023-04-10T23:17:51.428Z,97141.22
2023-04-10T23:20:20.610Z,97141.03
2023-04-10T23:22:48.218Z,97122.63
2023-04-10T23:25:15.841Z,97117.59
2023-04-10T23:27:43.521Z,97116.66
2023-04-10T23:30:11.449Z,97112.03
2023-04-10T23:32:39.150Z,97102.97
2023-04-10T23:35:07.278Z,97093.44
2023-04-10T23:37:36.352Z,97092.78
2023-04-10T23:40:04.106Z,97085.66
2023-04-10T23:42:31.753Z,97081.47
2023-04-10T23:44:59.546Z,97074.69
2023-04-10T23:47:27.275Z,97078.22
2023-04-10T23:49:55.277Z,97066.53
2023-04-10T23:52:22.920Z,97062.22
2023-04-10T23:54:51.860Z,97057.72
2023-04-10T23:57:19.494Z,97043.31
2023-04-10T23:59:47.134Z,97033.78
